Saturday, November 18, 2017, 10:00 PM EST
Back to Local

KGED, Georgetown Sussex Co Airport

Location: Georgetown, DE, United States Lat: 38.683
Local Time: 10:00 PM EST ( 3:00 GMT) Lon: -75.367
Time Zone: US/Eastern Elev: 52 ft

Show me the last for .
Show Coded

Time T Td Feel RH Dir Speed Gust Alt SLP Vis Weather Sky Remarks
2017-11-18 20:54 61 50 - 67 210° 17 26 29.59 29.58 10 CLR None
2017-11-18 19:54 60 48 - 64 190° 17 24 29.60 29.59 10 CLR None
2017-11-18 18:54 59 47 - 64 190° 16 - 29.64 29.64 10 CLR 6-hr Min Temp (7pm): 57.0°F
6-hr Max Temp (7pm): 64.0°F
2017-11-18 17:54 58 44 - 59 190° 15 - 29.66 29.66 10 CLR None
2017-11-18 16:54 58 41 - 53 200° 14 - 29.68 29.68 10 FEW090 None
2017-11-18 15:54 60 34 - 37 220° 20 31 29.69 29.69 10 CLR Peak wind: 31 mph (27 kts) from 200° at 49 min
2017-11-18 14:54 62 28 - 27 220° 20 31 29.72 29.71 10 CLR Peak wind: 31 mph (27 kts) from 190° at 54 min
2017-11-18 13:54 64 33 - 31 210° 17 25 29.74 29.73 10 CLR None
2017-11-18 12:54 60 38 - 43 200° 15 - 29.78 29.78 10 CLR 6-hr Min Temp (1pm): 34.0°F
6-hr Max Temp (1pm): 60.1°F
2017-11-18 11:54 56 39 - 52 200° 17 23 29.83 29.83 10 CLR Pressure falling rapidly
2017-11-18 10:54 54 39 - 56 210° 17 24 29.90 29.90 10 CLR None
2017-11-18 09:54 50 39 45 65 210° 13 - 29.94 29.94 10 CLR None
2017-11-18 08:54 46 38 41 73 190° 10 - 29.96 29.96 10 CLR None
2017-11-18 07:54 40 35 35 82 180° 7 - 29.99 29.99 10 CLR None
2017-11-18 06:54 34 30 31 85 200° 3 - 30.02 30.01 10 CLR 6-hr Min Temp (7am): 28.9°F
6-hr Max Temp (7am): 35.1°F
2017-11-18 05:54 33 28 29 81 200° 5 - 30.03 30.03 10 CLR None
2017-11-18 04:54 31 27 - 85 - Calm - 30.05 30.05 10 CLR None
2017-11-18 03:54 32 27 - 81 - Calm - 30.05 30.05 10 CLR None
2017-11-18 02:54 32 28 - 85 - Calm - 30.07 30.07 10 CLR None
2017-11-18 01:54 33 29 - 84 - Calm - 30.09 30.09 10 CLR None
2017-11-18 00:54 31 28 - 88 - Calm - 30.10 30.10 10 CLR 6-hr Min Temp (1am): 28.9°F
6-hr Max Temp (1am): 41.0°F
2017-11-17 23:54 31 27 - 85 - Calm - 30.10 30.10 10 CLR 24-hr Min Temp (12am): 30.9°F
24-hr Max Temp (12am): 52.0°F
2017-11-17 22:54 33 28 - 81 - Calm - 30.12 30.12 10 CLR None

Support USWX by starting your Amazon purchase here.